Terminal Aerodrome Forecast
Issued by NWS

Home | Current Version | Previous Version | Text Only | Print | Product List | Glossary On
Versions: 1 2 3 4 5 6 7 8 9 10 11 12 13 14 15 16 17 18 19 20 21 22 23 24 25 26
125
FTAK31 PAFA 280536
TAFAOM
TAF
PAOM 280536Z 2806/2906 25008KT P6SM VCSH SCT008 OVC025
     FM280800 25004KT 2SM -RA BR BKN007 OVC015
     FM282200 25007KT P6SM SCT007 BKN025=

USA.gov is the U.S. government's official web portal to all federal, state and local government web resources and services.